createdAt,value
2018-07-20T00:02:24.144Z,17.88
2018-07-20T00:04:52.549Z,17.85
2018-07-20T00:07:21.080Z,17.88
2018-07-20T00:09:49.514Z,17.82
2018-07-20T00:12:18.163Z,17.59
2018-07-20T00:14:46.801Z,17.75
2018-07-20T00:17:15.510Z,17.75
2018-07-20T00:19:58.441Z,17.62
2018-07-20T00:22:26.864Z,17.62
2018-07-20T00:24:55.524Z,17.61
2018-07-20T00:27:24.293Z,17.57
2018-07-20T00:29:53.184Z,17.55
2018-07-20T00:32:21.633Z,17.47
2018-07-20T00:34:50.040Z,17.43
2018-07-20T00:37:18.505Z,17.42
2018-07-20T00:39:46.938Z,17.36
2018-07-20T00:42:15.341Z,17.33
2018-07-20T00:44:43.734Z,17.23
2018-07-20T00:47:12.180Z,17.18
2018-07-20T00:49:40.606Z,17.14
2018-07-20T00:52:08.992Z,17.07
2018-07-20T00:54:37.350Z,17.13
2018-07-20T00:57:05.750Z,17.07
2018-07-20T00:59:34.165Z,17.02
2018-07-20T01:02:02.561Z,16.99
2018-07-20T01:04:31.031Z,17.00
2018-07-20T01:06:59.366Z,16.96
2018-07-20T01:09:27.836Z,16.97
2018-07-20T01:11:56.208Z,17.00
2018-07-20T01:14:24.600Z,16.94
2018-07-20T01:16:53.018Z,16.90
2018-07-20T01:19:21.493Z,16.96
2018-07-20T01:21:50.179Z,16.89
2018-07-20T01:24:18.609Z,16.83
2018-07-20T01:26:47.102Z,16.82
2018-07-20T01:29:15.518Z,16.67
2018-07-20T01:31:43.889Z,16.68
2018-07-20T01:34:12.373Z,16.66
2018-07-20T01:36:40.748Z,16.65
2018-07-20T01:39:09.785Z,16.67
2018-07-20T01:41:38.424Z,16.71
2018-07-20T01:44:07.046Z,16.63
2018-07-20T01:46:35.481Z,16.53
2018-07-20T01:49:04.199Z,16.54
2018-07-20T01:51:32.940Z,16.39
2018-07-20T01:54:01.414Z,16.34
2018-07-20T01:56:29.943Z,16.44
2018-07-20T01:58:58.411Z,16.45
2018-07-20T02:01:26.834Z,16.41
2018-07-20T02:03:55.261Z,16.35
2018-07-20T02:06:23.687Z,16.42
2018-07-20T02:08:52.095Z,16.44
2018-07-20T02:11:20.521Z,16.50
2018-07-20T02:13:48.928Z,16.55
2018-07-20T02:16:17.281Z,16.54
2018-07-20T02:18:45.672Z,16.58
2018-07-20T02:21:14.022Z,16.52
2018-07-20T02:24:13.131Z,16.54
2018-07-20T02:26:41.615Z,16.52
2018-07-20T02:29:09.941Z,16.48
2018-07-20T02:31:38.321Z,16.54
2018-07-20T02:34:06.830Z,16.55
2018-07-20T02:36:35.287Z,16.49
2018-07-20T02:39:05.049Z,16.61
2018-07-20T02:41:33.447Z,16.56
2018-07-20T02:44:01.935Z,16.58
2018-07-20T02:46:30.384Z,16.56
2018-07-20T02:48:58.767Z,16.54
2018-07-20T02:51:27.168Z,16.46
2018-07-20T02:53:55.829Z,16.49
2018-07-20T02:56:24.265Z,16.54
2018-07-20T02:58:52.674Z,16.54
2018-07-20T03:01:21.067Z,16.61
2018-07-20T03:03:49.476Z,16.68
2018-07-20T03:06:17.854Z,16.52
2018-07-20T03:08:46.193Z,16.59
2018-07-20T03:11:14.618Z,16.62
2018-07-20T03:13:43.257Z,16.58
2018-07-20T03:16:11.672Z,16.58
2018-07-20T03:18:40.107Z,16.63
2018-07-20T03:21:08.531Z,16.57
2018-07-20T03:23:36.957Z,16.66
2018-07-20T03:26:06.109Z,16.68
2018-07-20T03:28:34.584Z,16.66
2018-07-20T03:31:03.090Z,16.70
2018-07-20T03:33:31.505Z,16.74
2018-07-20T03:35:59.957Z,16.72
2018-07-20T03:38:28.386Z,16.73
2018-07-20T03:40:56.821Z,16.71
2018-07-20T03:43:25.237Z,16.72
2018-07-20T03:45:53.651Z,16.70
2018-07-20T03:48:22.081Z,16.75
2018-07-20T03:50:50.448Z,16.78
2018-07-20T03:53:18.833Z,16.82
2018-07-20T03:55:47.193Z,16.82
2018-07-20T03:58:15.589Z,16.86
2018-07-20T04:00:43.986Z,16.83
2018-07-20T04:03:12.445Z,16.86
2018-07-20T04:05:41.571Z,16.89
2018-07-20T04:08:10.210Z,16.91
2018-07-20T04:10:39.961Z,16.91
2018-07-20T04:13:11.476Z,16.94
2018-07-20T04:15:39.995Z,16.94
2018-07-20T04:18:08.366Z,16.98
2018-07-20T04:20:36.797Z,16.99
2018-07-20T04:23:05.286Z,17.03
2018-07-20T04:25:33.787Z,17.07
2018-07-20T04:28:02.298Z,17.03
2018-07-20T04:30:30.719Z,17.02
2018-07-20T04:32:59.221Z,17.07
2018-07-20T04:35:27.585Z,16.96
2018-07-20T04:37:56.266Z,16.88
2018-07-20T04:40:24.802Z,16.77
2018-07-20T04:42:53.239Z,16.75
2018-07-20T04:45:21.752Z,16.84
2018-07-20T04:47:50.640Z,16.92
2018-07-20T04:50:20.665Z,17.02
2018-07-20T04:52:50.640Z,17.06
2018-07-20T04:55:19.184Z,17.09
2018-07-20T04:57:47.685Z,17.16
2018-07-20T05:00:16.183Z,17.22
2018-07-20T05:02:44.689Z,17.21
2018-07-20T05:05:13.152Z,17.30
2018-07-20T05:07:41.550Z,17.34
2018-07-20T05:10:09.944Z,17.37
2018-07-20T05:12:38.321Z,17.48
2018-07-20T05:15:06.777Z,17.56
2018-07-20T05:17:35.229Z,17.61
2018-07-20T05:20:03.637Z,17.70
2018-07-20T05:22:32.095Z,17.55
2018-07-20T05:25:00.506Z,17.52
2018-07-20T05:27:28.992Z,17.55
2018-07-20T05:29:57.399Z,17.59
2018-07-20T05:32:25.868Z,17.53
2018-07-20T05:34:54.340Z,17.64
2018-07-20T05:37:22.744Z,17.75
2018-07-20T05:39:51.116Z,17.75
2018-07-20T05:42:19.526Z,17.81
2018-07-20T05:44:47.901Z,17.77
2018-07-20T05:47:16.302Z,17.89
2018-07-20T05:49:44.691Z,17.99
2018-07-20T05:52:13.142Z,18.20
2018-07-20T05:54:41.561Z,18.59
2018-07-20T05:57:09.995Z,19.21
2018-07-20T05:59:38.535Z,19.39
2018-07-20T06:02:07.012Z,19.61
2018-07-20T06:04:35.444Z,19.50
2018-07-20T06:07:03.880Z,19.81
2018-07-20T06:09:32.329Z,19.60
2018-07-20T06:12:00.836Z,19.38
2018-07-20T06:14:29.247Z,19.15
2018-07-20T06:16:57.699Z,19.21
2018-07-20T06:19:26.127Z,19.27
2018-07-20T06:21:54.487Z,19.21
2018-07-20T06:24:22.919Z,19.68
2018-07-20T06:26:51.314Z,19.79
2018-07-20T06:29:19.783Z,19.77
2018-07-20T06:31:48.214Z,19.92
2018-07-20T06:34:16.668Z,19.82
2018-07-20T06:36:45.051Z,20.11
2018-07-20T06:39:13.487Z,19.96
2018-07-20T06:41:42.531Z,19.99
2018-07-20T06:44:10.941Z,20.45
2018-07-20T06:46:39.387Z,20.49
2018-07-20T06:49:08.296Z,20.51
2018-07-20T06:51:37.302Z,20.49
2018-07-20T06:54:05.861Z,20.95
2018-07-20T06:56:34.364Z,21.04
2018-07-20T06:59:02.775Z,21.30
2018-07-20T07:01:31.236Z,21.30
2018-07-20T07:03:59.661Z,20.87
2018-07-20T07:06:28.109Z,21.31
2018-07-20T07:08:56.496Z,21.47
2018-07-20T07:11:24.912Z,21.70
2018-07-20T07:13:53.326Z,21.38
2018-07-20T07:16:21.803Z,21.22
2018-07-20T07:18:50.169Z,20.91
2018-07-20T07:21:18.558Z,21.18
2018-07-20T07:23:46.945Z,21.45
2018-07-20T07:26:15.441Z,21.41
2018-07-20T07:28:43.851Z,21.50
2018-07-20T07:31:12.289Z,21.36
2018-07-20T07:33:40.662Z,21.75
2018-07-20T07:36:09.231Z,22.31
2018-07-20T07:38:37.677Z,22.27
2018-07-20T07:41:06.206Z,22.22
2018-07-20T07:43:34.660Z,22.54
2018-07-20T07:46:03.055Z,21.56
2018-07-20T07:48:31.468Z,21.59
2018-07-20T07:50:59.957Z,21.84
2018-07-20T07:53:28.320Z,22.11
2018-07-20T07:55:56.814Z,22.46
2018-07-20T07:58:25.283Z,22.58
2018-07-20T08:00:53.769Z,21.95
2018-07-20T08:03:22.244Z,22.23
2018-07-20T08:05:50.663Z,22.12
2018-07-20T08:08:19.052Z,22.18
2018-07-20T08:10:47.519Z,22.29
2018-07-20T08:13:15.895Z,22.34
2018-07-20T08:15:44.307Z,22.08
2018-07-20T08:18:12.723Z,22.30
2018-07-20T08:20:41.155Z,22.52
2018-07-20T08:23:09.584Z,22.46
2018-07-20T08:25:37.989Z,22.73
2018-07-20T08:28:06.480Z,22.52
2018-07-20T08:30:34.864Z,22.68
2018-07-20T08:33:03.432Z,22.73
2018-07-20T08:35:31.877Z,22.81
2018-07-20T08:38:00.256Z,22.50
2018-07-20T08:40:28.846Z,22.48
2018-07-20T08:42:57.240Z,22.60
2018-07-20T08:45:25.720Z,22.98
2018-07-20T08:47:54.199Z,23.23
2018-07-20T08:50:22.550Z,22.99
2018-07-20T08:52:50.989Z,23.15
2018-07-20T08:55:19.602Z,23.17
2018-07-20T08:57:48.134Z,23.31
2018-07-20T09:00:16.579Z,23.01
2018-07-20T09:02:44.936Z,23.32
2018-07-20T09:05:13.312Z,23.17
2018-07-20T09:07:41.749Z,23.36
2018-07-20T09:10:10.379Z,23.43
2018-07-20T09:12:38.857Z,23.80
2018-07-20T09:15:07.319Z,23.70
2018-07-20T09:17:35.750Z,23.96
2018-07-20T09:20:04.169Z,24.26
2018-07-20T09:22:32.552Z,24.60
2018-07-20T09:25:00.952Z,24.88
2018-07-20T09:27:29.390Z,24.03
2018-07-20T09:29:57.773Z,24.19
2018-07-20T09:32:26.257Z,24.47
2018-07-20T09:34:54.877Z,24.88
2018-07-20T09:37:23.261Z,25.27
2018-07-20T09:39:51.706Z,25.35
2018-07-20T09:42:20.068Z,25.10
2018-07-20T09:44:48.446Z,24.64
2018-07-20T09:47:16.794Z,24.78
2018-07-20T09:49:45.165Z,24.27
2018-07-20T09:52:13.556Z,24.81
2018-07-20T09:54:41.961Z,24.48
2018-07-20T09:57:10.705Z,24.90
2018-07-20T09:59:39.174Z,25.08
2018-07-20T10:02:07.592Z,25.19
2018-07-20T10:04:36.100Z,25.32
2018-07-20T10:07:04.547Z,25.31
2018-07-20T10:09:32.905Z,25.16
2018-07-20T10:12:01.358Z,25.32
2018-07-20T10:14:29.796Z,25.46
2018-07-20T10:16:58.247Z,25.47
2018-07-20T10:19:26.632Z,25.44
2018-07-20T10:21:55.031Z,25.70
2018-07-20T10:24:23.409Z,25.63
2018-07-20T10:26:51.865Z,25.58
2018-07-20T10:29:20.263Z,25.97
2018-07-20T10:31:48.712Z,25.32
2018-07-20T10:34:17.094Z,25.57
2018-07-20T10:36:45.501Z,25.55
2018-07-20T10:39:13.872Z,25.79
2018-07-20T10:41:42.305Z,25.97
2018-07-20T10:44:10.827Z,26.24
2018-07-20T10:46:39.232Z,25.96
2018-07-20T10:49:07.876Z,26.09
2018-07-20T10:51:36.268Z,26.33
2018-07-20T10:54:04.680Z,26.49
2018-07-20T10:56:33.122Z,26.45
2018-07-20T10:59:01.534Z,26.22
2018-07-20T11:01:29.972Z,26.14
2018-07-20T11:03:58.563Z,26.09
2018-07-20T11:06:26.937Z,26.26
2018-07-20T11:08:55.349Z,26.38
2018-07-20T11:11:23.760Z,26.63
2018-07-20T11:13:52.167Z,26.77
2018-07-20T11:16:20.873Z,26.93
2018-07-20T11:18:49.267Z,26.84
2018-07-20T11:21:17.657Z,26.68
2018-07-20T11:23:46.106Z,26.53
2018-07-20T11:26:14.485Z,26.60
2018-07-20T11:28:42.899Z,26.70
2018-07-20T11:31:11.342Z,26.82
2018-07-20T11:33:39.732Z,26.75
2018-07-20T11:36:08.149Z,26.86
2018-07-20T11:38:36.517Z,26.61
2018-07-20T11:41:04.923Z,26.60
2018-07-20T11:43:33.558Z,26.71
2018-07-20T11:46:01.956Z,26.76
2018-07-20T11:48:30.642Z,26.52
2018-07-20T11:50:59.039Z,26.76
2018-07-20T11:53:27.536Z,26.86
2018-07-20T11:55:55.905Z,27.04
2018-07-20T11:58:24.334Z,27.13
2018-07-20T12:00:52.721Z,27.39
2018-07-20T12:03:21.107Z,27.49
2018-07-20T12:05:49.619Z,27.47
2018-07-20T12:08:18.063Z,27.20
2018-07-20T12:10:46.485Z,27.12
2018-07-20T12:13:14.935Z,26.90
2018-07-20T12:15:43.392Z,26.90
2018-07-20T12:18:11.805Z,26.99
2018-07-20T12:20:40.232Z,26.76
2018-07-20T12:23:08.569Z,26.86
2018-07-20T12:25:36.959Z,26.92
2018-07-20T12:28:05.420Z,26.87
2018-07-20T12:30:33.803Z,26.92
2018-07-20T12:33:02.223Z,27.09
2018-07-20T12:35:30.581Z,26.91
2018-07-20T12:37:58.990Z,26.88
2018-07-20T12:40:27.627Z,26.89
2018-07-20T12:42:56.030Z,27.06
2018-07-20T12:45:24.529Z,27.13
2018-07-20T12:47:52.949Z,27.05
2018-07-20T12:50:21.536Z,27.08
2018-07-20T12:52:49.874Z,27.24
2018-07-20T12:55:18.223Z,27.18
2018-07-20T12:57:46.781Z,27.16
2018-07-20T13:00:15.220Z,27.29
2018-07-20T13:02:43.621Z,27.52
2018-07-20T13:05:11.977Z,27.70
2018-07-20T13:07:40.460Z,27.84
2018-07-20T13:10:08.832Z,27.96
2018-07-20T13:12:37.259Z,28.05
2018-07-20T13:15:06.246Z,28.00
2018-07-20T13:17:34.642Z,28.02
2018-07-20T13:20:03.141Z,27.94
2018-07-20T13:22:31.611Z,28.01
2018-07-20T13:25:00.039Z,28.13
2018-07-20T13:27:28.410Z,28.24
2018-07-20T13:29:56.798Z,28.31
2018-07-20T13:32:25.223Z,28.39
2018-07-20T13:34:53.648Z,28.43
2018-07-20T13:37:22.154Z,28.44
2018-07-20T13:39:50.651Z,28.31
2018-07-20T13:42:19.066Z,28.51
2018-07-20T13:44:47.440Z,28.35
2018-07-20T13:47:15.911Z,28.56
2018-07-20T13:49:44.334Z,28.58
2018-07-20T13:52:12.840Z,28.67
2018-07-20T13:54:41.334Z,28.74
2018-07-20T13:57:09.785Z,28.71
2018-07-20T13:59:38.174Z,28.73
2018-07-20T14:02:06.657Z,28.35
2018-07-20T14:04:35.057Z,28.31
2018-07-20T14:07:03.564Z,28.30
2018-07-20T14:09:32.021Z,28.32
2018-07-20T14:12:00.477Z,28.38
2018-07-20T14:14:28.904Z,28.36
2018-07-20T14:16:57.258Z,28.23
2018-07-20T14:19:25.626Z,28.22
2018-07-20T14:21:54.083Z,27.82
2018-07-20T14:24:22.515Z,27.86
2018-07-20T14:26:50.932Z,28.01
2018-07-20T14:29:19.305Z,27.97
2018-07-20T14:31:47.798Z,28.17
2018-07-20T14:34:16.193Z,28.25
2018-07-20T14:36:44.639Z,28.39
2018-07-20T14:39:14.048Z,28.38
2018-07-20T14:41:42.834Z,28.14
2018-07-20T14:44:11.251Z,28.30
2018-07-20T14:46:39.675Z,28.33
2018-07-20T14:49:08.069Z,28.06
2018-07-20T14:51:36.466Z,27.98
2018-07-20T14:54:04.901Z,28.01
2018-07-20T14:56:33.276Z,28.18
2018-07-20T14:59:01.660Z,28.05
2018-07-20T15:01:30.081Z,27.92
2018-07-20T15:03:58.553Z,27.86
2018-07-20T15:06:26.950Z,27.98
2018-07-20T15:08:55.349Z,27.88
2018-07-20T15:11:23.777Z,27.82
2018-07-20T15:13:52.276Z,27.85
2018-07-20T15:16:20.752Z,27.86
2018-07-20T15:18:49.165Z,27.88
2018-07-20T15:21:17.688Z,28.01
2018-07-20T15:23:46.101Z,27.88
2018-07-20T15:26:14.497Z,27.87
2018-07-20T15:28:42.887Z,27.99
2018-07-20T15:31:11.384Z,27.97
2018-07-20T15:33:39.862Z,27.88
2018-07-20T15:36:08.387Z,27.92
2018-07-20T15:38:36.842Z,27.97
2018-07-20T15:41:05.268Z,27.85
2018-07-20T15:43:33.717Z,27.99
2018-07-20T15:46:06.043Z,28.12
2018-07-20T15:48:30.592Z,28.10
2018-07-20T15:50:58.997Z,28.05
2018-07-20T15:53:42.738Z,28.05
2018-07-20T15:55:56.124Z,28.02
2018-07-20T15:58:24.486Z,28.09
2018-07-20T16:00:52.919Z,28.14
2018-07-20T16:03:21.528Z,28.14
2018-07-20T16:05:49.959Z,28.14
2018-07-20T16:08:18.339Z,27.92
2018-07-20T16:10:46.754Z,27.98
2018-07-20T16:13:15.160Z,27.81
2018-07-20T16:15:43.535Z,27.86
2018-07-20T16:18:12.060Z,27.91
2018-07-20T16:20:40.476Z,27.86
2018-07-20T16:23:09.009Z,27.88
2018-07-20T16:25:37.487Z,27.77
2018-07-20T16:28:05.870Z,27.89
2018-07-20T16:30:34.250Z,27.80
2018-07-20T16:33:02.634Z,27.85
2018-07-20T16:35:31.053Z,27.69
2018-07-20T16:37:59.532Z,27.69
2018-07-20T16:40:28.191Z,27.80
2018-07-20T16:42:56.705Z,27.77
2018-07-20T16:45:25.209Z,27.74
2018-07-20T16:47:53.573Z,27.80
2018-07-20T16:50:21.949Z,27.62
2018-07-20T16:52:50.497Z,27.49
2018-07-20T16:55:18.960Z,27.50
2018-07-20T16:57:47.333Z,27.58
2018-07-20T17:00:15.769Z,27.63
2018-07-20T17:02:44.164Z,27.69
2018-07-20T17:05:12.583Z,27.71
2018-07-20T17:07:40.996Z,27.69
2018-07-20T17:10:09.490Z,27.66
2018-07-20T17:12:38.103Z,27.58
2018-07-20T17:15:06.663Z,27.52
2018-07-20T17:17:35.108Z,27.56
2018-07-20T17:20:03.690Z,27.64
2018-07-20T17:22:32.189Z,27.55
2018-07-20T17:25:00.589Z,27.55
2018-07-20T17:27:29.011Z,27.53
2018-07-20T17:29:57.473Z,27.47
2018-07-20T17:32:25.934Z,27.47
2018-07-20T17:34:54.391Z,27.45
2018-07-20T17:37:22.879Z,27.39
2018-07-20T17:39:51.304Z,27.29
2018-07-20T17:42:19.806Z,27.28
2018-07-20T17:44:48.284Z,27.24
2018-07-20T17:47:16.692Z,27.20
2018-07-20T17:49:45.142Z,27.18
2018-07-20T17:52:13.556Z,27.11
2018-07-20T17:54:41.993Z,27.13
2018-07-20T17:57:10.661Z,27.04
2018-07-20T17:59:39.172Z,27.06
2018-07-20T18:02:07.766Z,27.03
2018-07-20T18:04:36.407Z,26.90
2018-07-20T18:07:04.917Z,26.83
2018-07-20T18:09:33.289Z,26.79
2018-07-20T18:12:01.802Z,26.74
2018-07-20T18:14:30.209Z,26.75
2018-07-20T18:16:58.612Z,26.62
2018-07-20T18:19:27.036Z,26.56
2018-07-20T18:21:55.500Z,26.57
2018-07-20T18:24:23.902Z,26.46
2018-07-20T18:26:52.354Z,26.42
2018-07-20T18:29:20.826Z,26.36
2018-07-20T18:31:49.296Z,26.26
2018-07-20T18:34:17.789Z,26.25
2018-07-20T18:36:46.179Z,26.22
2018-07-20T18:39:14.681Z,26.13
2018-07-20T18:41:43.131Z,26.05
2018-07-20T18:44:11.556Z,26.00
2018-07-20T18:46:40.149Z,25.95
2018-07-20T18:49:08.760Z,25.93
2018-07-20T18:51:37.715Z,25.83
2018-07-20T18:54:06.630Z,25.82
2018-07-20T18:56:35.611Z,25.72
2018-07-20T18:59:04.298Z,25.65
2018-07-20T19:01:32.967Z,25.57
2018-07-20T19:04:02.412Z,25.47
2018-07-20T19:06:31.079Z,25.44
2018-07-20T19:08:59.629Z,25.35
2018-07-20T19:11:28.460Z,25.30
2018-07-20T19:13:57.083Z,25.26
2018-07-20T19:16:25.734Z,25.15
2018-07-20T19:18:54.504Z,25.13
2018-07-20T19:21:23.092Z,25.02
2018-07-20T19:23:51.819Z,24.95
2018-07-20T19:26:20.523Z,24.86
2018-07-20T19:28:49.169Z,24.83
2018-07-20T19:31:17.823Z,24.78
2018-07-20T19:33:46.965Z,24.71
2018-07-20T19:36:15.650Z,24.68
2018-07-20T19:38:44.295Z,24.57
2018-07-20T19:41:12.899Z,24.49
2018-07-20T19:43:41.501Z,24.42
2018-07-20T19:46:10.265Z,24.39
2018-07-20T19:48:39.131Z,24.30
2018-07-20T19:51:07.748Z,24.22
2018-07-20T19:53:36.429Z,24.17
2018-07-20T19:56:05.177Z,24.18
2018-07-20T19:58:33.942Z,24.10
2018-07-20T20:01:02.752Z,24.08
2018-07-20T20:03:31.437Z,24.02
2018-07-20T20:06:00.270Z,23.99
2018-07-20T20:08:29.054Z,23.86
2018-07-20T20:10:57.891Z,23.78
2018-07-20T20:13:26.558Z,23.89
2018-07-20T20:15:55.190Z,23.75
2018-07-20T20:18:23.686Z,23.74
2018-07-20T20:20:52.165Z,23.70
2018-07-20T20:23:20.713Z,23.59
2018-07-20T20:25:49.323Z,23.53
2018-07-20T20:28:18.036Z,23.49
2018-07-20T20:30:46.784Z,23.46
2018-07-20T20:33:15.345Z,23.59
2018-07-20T20:35:43.992Z,23.50
2018-07-20T20:38:12.611Z,23.41
2018-07-20T20:40:41.171Z,23.44
2018-07-20T20:43:09.772Z,23.27
2018-07-20T20:45:38.352Z,23.20
2018-07-20T20:48:07.353Z,23.21
2018-07-20T20:50:35.886Z,23.12
2018-07-20T20:53:04.573Z,23.07
2018-07-20T20:55:33.321Z,23.01
2018-07-20T20:58:01.989Z,22.97
2018-07-20T21:00:30.598Z,22.89
2018-07-20T21:03:02.731Z,22.90
2018-07-20T21:05:33.991Z,22.81
2018-07-20T21:08:04.977Z,22.68
2018-07-20T21:10:36.385Z,22.71
2018-07-20T21:13:09.090Z,22.62
2018-07-20T21:15:42.081Z,22.62
2018-07-20T21:18:15.444Z,22.59
2018-07-20T21:20:48.503Z,22.46
2018-07-20T21:23:20.276Z,22.33
2018-07-20T21:25:52.368Z,22.27
2018-07-20T21:28:24.786Z,22.36
2018-07-20T21:30:57.296Z,22.30
2018-07-20T21:33:30.049Z,22.16
2018-07-20T21:36:02.153Z,22.01
2018-07-20T21:38:33.399Z,21.95
2018-07-20T21:41:06.096Z,21.95
2018-07-20T21:43:38.518Z,21.87
2018-07-20T21:46:14.962Z,21.81
2018-07-20T21:48:47.092Z,21.85
2018-07-20T21:51:20.288Z,21.81
2018-07-20T21:53:55.262Z,21.82
2018-07-20T21:56:27.825Z,21.68
2018-07-20T22:04:51.742Z,21.58
2018-07-20T22:07:29.785Z,21.48
2018-07-20T22:10:07.410Z,21.50
2018-07-20T22:15:32.088Z,21.36
2018-07-20T22:23:47.263Z,21.12
2018-07-20T22:26:19.140Z,21.00
2018-07-20T22:28:49.832Z,20.96
2018-07-20T22:31:21.168Z,20.91
2018-07-20T22:33:52.232Z,20.88
2018-07-20T22:36:23.129Z,20.79
2018-07-20T22:38:54.610Z,20.87
2018-07-20T22:47:08.561Z,20.69
2018-07-20T22:49:39.267Z,20.69
2018-07-20T23:00:38.450Z,20.63
2018-07-20T23:03:07.007Z,20.56
2018-07-20T23:05:35.517Z,20.56
2018-07-20T23:08:04.307Z,20.64
2018-07-20T23:10:32.931Z,20.71
2018-07-20T23:13:01.503Z,20.57
2018-07-20T23:15:33.131Z,20.56
2018-07-20T23:18:01.732Z,20.54
2018-07-20T23:20:30.331Z,20.48
2018-07-20T23:22:58.850Z,20.39
2018-07-20T23:25:27.429Z,20.33
2018-07-20T23:27:56.530Z,20.29
2018-07-20T23:30:26.386Z,20.23
2018-07-20T23:32:54.812Z,20.27
2018-07-20T23:35:23.861Z,20.26
2018-07-20T23:37:52.516Z,20.31
2018-07-20T23:40:21.029Z,20.20
2018-07-20T23:42:49.574Z,20.24
2018-07-20T23:45:18.159Z,20.31
2018-07-20T23:47:46.791Z,20.29
2018-07-20T23:50:15.580Z,20.29
2018-07-20T23:52:44.138Z,20.20
2018-07-20T23:55:12.755Z,20.34
2018-07-20T23:57:41.256Z,20.27
